Time;durP1;ratioP1;P1;durP2;ratioP2;P2;SDS_P1;SDS_P2;PMS_P1;PMS_P2;Temp;Humidity;BMP_temperature;BMP_pressure;BME280_temperature;BME280_humidity;BME280_pressure;Samples;Min_cycle;Max_cycle;Signal;HPM_P1;HPM_P2
2022/12/09 00:02:02;;;;;;;3.80;2.30;;;;;;;;;;5091438;28;20457;-71
2022/12/09 00:04:30;;;;;;;5.80;3.87;;;;;;;;;;5085691;28;20942;-71
2022/12/09 00:06:58;;;;;;;3.20;2.83;;;;;;;;;;5091846;28;20454;-71
2022/12/09 00:09:25;;;;;;;5.40;2.13;;;;;;;;;;5091729;28;20480;-71
2022/12/09 00:11:52;;;;;;;1.53;1.43;;;;;;;;;;5091661;28;20449;-71
2022/12/09 00:14:19;;;;;;;3.00;2.80;;;;;;;;;;5091923;28;20445;-70
2022/12/09 00:16:46;;;;;;;5.50;3.30;;;;;;;;;;5089916;28;20948;-70
2022/12/09 00:19:14;;;;;;;4.63;2.40;;;;;;;;;;5078160;28;20446;-70
2022/12/09 00:21:42;;;;;;;3.57;2.20;;;;;;;;;;5091376;28;20451;-71
2022/12/09 00:24:13;;;;;;;3.40;2.40;;;;;;;;;;5072835;28;20462;-71
2022/12/09 00:26:40;;;;;;;3.63;2.73;;;;;;;;;;5085685;28;20462;-70
2022/12/09 00:29:07;;;;;;;5.53;2.33;;;;;;;;;;5090450;28;20478;-70
2022/12/09 00:31:35;;;;;;;2.27;2.03;;;;;;;;;;5079019;28;20545;-70
2022/12/09 00:34:03;;;;;;;3.27;1.83;;;;;;;;;;5084668;28;20454;-70
2022/12/09 00:36:30;;;;;;;2.60;2.33;;;;;;;;;;5091707;28;20449;-70
2022/12/09 00:38:58;;;;;;;2.53;2.23;;;;;;;;;;5081787;28;20458;-71
2022/12/09 00:41:27;;;;;;;3.87;2.77;;;;;;;;;;5084541;28;20445;-70
2022/12/09 00:43:55;;;;;;;2.57;1.70;;;;;;;;;;5078314;28;20968;-70
2022/12/09 00:46:22;;;;;;;2.77;2.50;;;;;;;;;;5076595;28;20451;-71
2022/12/09 00:48:49;;;;;;;3.67;3.30;;;;;;;;;;5079826;28;20987;-68
2022/12/09 00:51:17;;;;;;;4.30;3.43;;;;;;;;;;5091439;28;20445;-70
2022/12/09 00:53:44;;;;;;;4.00;3.13;;;;;;;;;;5088132;28;20441;-70
2022/12/09 00:56:11;;;;;;;6.77;3.43;;;;;;;;;;5086636;28;20450;-70
2022/12/09 00:58:40;;;;;;;3.50;2.23;;;;;;;;;;5081569;28;20455;-71
2022/12/09 01:01:07;;;;;;;6.77;3.70;;;;;;;;;;5084627;28;20441;-72
2022/12/09 01:03:34;;;;;;;2.10;1.90;;;;;;;;;;5090954;28;20455;-70
2022/12/09 01:06:01;;;;;;;5.60;3.10;;;;;;;;;;5090667;28;20445;-70
2022/12/09 01:08:29;;;;;;;5.37;2.07;;;;;;;;;;5083954;28;20457;-70
2022/12/09 01:10:56;;;;;;;2.53;1.93;;;;;;;;;;5090734;28;20524;-70
2022/12/09 01:13:23;;;;;;;3.60;2.27;;;;;;;;;;5087578;28;20560;-70
2022/12/09 01:15:51;;;;;;;2.10;1.90;;;;;;;;;;5090695;28;20445;-70
2022/12/09 01:18:18;;;;;;;3.83;2.27;;;;;;;;;;5079367;28;20819;-70
2022/12/09 01:20:45;;;;;;;3.20;2.87;;;;;;;;;;5077003;28;20453;-67
2022/12/09 01:23:13;;;;;;;4.47;2.03;;;;;;;;;;5091030;28;20820;-70
2022/12/09 01:25:40;;;;;;;3.10;2.27;;;;;;;;;;5090563;28;20443;-70
2022/12/09 01:28:07;;;;;;;2.83;1.80;;;;;;;;;;5088194;28;20452;-70
2022/12/09 01:30:34;;;;;;;6.07;2.40;;;;;;;;;;5085784;28;20477;-70
2022/12/09 01:33:02;;;;;;;5.00;2.77;;;;;;;;;;5089573;28;20448;-70
2022/12/09 01:35:30;;;;;;;2.80;1.90;;;;;;;;;;5082122;28;20462;-70
2022/12/09 01:37:57;;;;;;;5.80;3.37;;;;;;;;;;5082528;28;20450;-70
2022/12/09 01:40:24;;;;;;;3.13;2.40;;;;;;;;;;5090333;28;20455;-70
2022/12/09 01:42:51;;;;;;;4.07;2.60;;;;;;;;;;5088370;28;20446;-70
2022/12/09 01:45:36;;;;;;;6.07;4.97;;;;;;;;;;5081751;28;20450;-70
2022/12/09 01:48:06;;;;;;;5.03;2.63;;;;;;;;;;5064198;28;20468;-70
2022/12/09 01:50:33;;;;;;;2.47;2.27;;;;;;;;;;5090769;28;20473;-70
2022/12/09 01:53:01;;;;;;;5.00;3.30;;;;;;;;;;5089646;28;20445;-70
2022/12/09 01:55:28;;;;;;;3.73;1.90;;;;;;;;;;5087705;28;20463;-70
2022/12/09 01:57:55;;;;;;;2.80;1.90;;;;;;;;;;5093169;28;20457;-69
2022/12/09 02:00:22;;;;;;;3.10;1.83;;;;;;;;;;5093348;28;20932;-70
2022/12/09 02:02:50;;;;;;;3.70;2.20;;;;;;;;;;5095739;28;20812;-70
2022/12/09 02:05:23;;;;;;;2.30;2.10;;;2.60;38.60;;;;;;5097270;28;20445;-69
2022/12/09 02:07:49;;;;;;;3.80;2.47;;;-1.40;99.90;;;;;;5091952;28;20454;-69
2022/12/09 02:10:18;;;;;;;2.53;1.90;;;-1.40;1.00;;;;;;5096116;28;20483;-69
2022/12/09 02:12:54;;;;;;;4.57;2.30;;;-1.50;99.90;;;;;;5085977;28;20452;-69
2022/12/09 02:15:23;;;;;;;1.93;1.80;;;-1.40;1.00;;;;;;5083875;28;20448;-69
2022/12/09 02:17:54;;;;;;;1.97;1.57;;;-1.60;99.90;;;;;;5088628;28;20453;-69
2022/12/09 02:20:29;;;;;;;7.07;2.60;;;-1.20;99.90;;;;;;5078822;28;20450;-69
2022/12/09 02:23:04;;;;;;;3.77;2.87;;;-1.10;99.90;;;;;;5096957;28;20445;-69
2022/12/09 02:25:36;;;;;;;9.60;3.90;;;-1.40;99.90;;;;;;5092445;28;20917;-69
2022/12/09 02:28:38;;;;;;;6.00;2.20;;;-1.50;99.90;;;;;;5088217;28;20463;-69
2022/12/09 02:31:18;;;;;;;2.67;1.77;;;-1.20;99.90;;;;;;5086948;28;20472;-69
2022/12/09 02:34:02;;;;;;;3.67;2.23;;;-1.50;99.90;;;;;;5096264;28;20498;-68
2022/12/09 02:36:36;;;;;;;4.30;3.90;;;-1.50;99.90;;;;;;5096387;28;20451;-69
2022/12/09 02:39:03;;;;;;;6.33;2.30;;;-1.50;99.90;;;;;;5095168;28;20449;-69
2022/12/09 02:41:33;;;;;;;1.87;1.67;;;-1.50;1.00;;;;;;5094437;28;20452;-70
2022/12/09 02:44:06;;;;;;;2.77;1.00;;;-1.60;99.90;;;;;;5084663;28;20449;-69
2022/12/09 02:46:35;;;;;;;3.97;1.40;;;-1.80;1.00;;;;;;5083099;28;20445;-69
2022/12/09 02:49:04;;;;;;;2.77;2.30;;;-1.60;1.00;;;;;;5084484;28;20508;-69
2022/12/09 02:51:34;;;;;;;3.47;1.70;;;-1.60;1.00;;;;;;5094105;28;20545;-70
2022/12/09 02:54:07;;;;;;;2.33;2.10;;;-1.80;1.00;;;;;;5095807;28;20436;-69
2022/12/09 02:56:34;;;;;;;5.37;3.00;;;-1.90;1.00;;;;;;5080309;28;20946;-69
2022/12/09 02:59:01;;;;;;;1.53;1.10;;;-1.80;1.00;;;;;;5076713;28;20968;-70
2022/12/09 03:01:36;;;;;;;5.50;3.93;;;-1.80;1.00;;;;;;5093633;28;20460;-69
2022/12/09 03:04:06;;;;;;;8.50;3.20;;;-1.90;1.00;;;;;;5083841;28;20447;-69
2022/12/09 03:06:40;;;;;;;2.50;1.63;;;-1.60;1.00;;;;;;5093807;28;20524;-69
2022/12/09 03:09:10;;;;;;;9.50;2.90;;;-1.80;1.00;;;;;;5086503;28;20842;-70
2022/12/09 03:11:38;;;;;;;3.10;2.60;;;-1.60;1.00;;;;;;5093202;28;20975;-69
2022/12/09 03:14:10;;;;;;;2.60;1.70;;;-1.90;1.00;;;;;;5080723;28;20442;-69
2022/12/09 03:16:41;;;;;;;2.30;2.03;;;-1.90;1.00;;;;;;5093625;28;20441;-69
2022/12/09 03:19:14;;;;;;;8.20;3.20;;;-2.00;1.00;;;;;;5080628;28;20827;-69
2022/12/09 03:21:45;;;;;;;2.57;1.80;;;-2.00;1.00;;;;;;5093540;28;20445;-69
2022/12/09 03:24:17;;;;;;;3.50;2.80;;;-1.60;1.00;;;;;;5093264;28;20441;-69
2022/12/09 03:26:45;;;;;;;2.83;1.80;;;-1.10;99.90;;;;;;5093292;28;20951;-69
2022/12/09 03:29:16;;;;;;;3.97;2.97;;;-1.60;91.20;;;;;;5093320;28;20452;-69
2022/12/09 03:31:45;;;;;;;3.00;2.80;;;-1.60;99.90;;;;;;5093222;28;20526;-69
2022/12/09 03:34:17;;;;;;;5.17;3.30;;;-1.70;99.90;;;;;;5081979;28;20482;-69
2022/12/09 03:36:47;;;;;;;2.60;2.10;;;-1.70;1.00;;;;;;5089547;28;20453;-69
2022/12/09 03:39:16;;;;;;;4.40;1.70;;;-1.70;99.90;;;;;;5084885;28;20449;-68
2022/12/09 03:41:45;;;;;;;3.23;2.30;;;-1.20;99.90;;;;;;5092873;28;20810;-69
2022/12/09 03:44:17;;;;;;;5.67;2.30;;;-1.60;85.30;;;;;;5092345;28;20499;-70
2022/12/09 03:46:44;;;;;;;5.67;4.13;;;-1.60;99.90;;;;;;5079311;28;20766;-69
2022/12/09 03:49:12;;;;;;;2.53;1.80;;;-1.70;99.90;;;;;;5091471;28;20966;-69
2022/12/09 03:51:44;;;;;;;2.70;2.37;;;;;;;;;;5079258;28;20477;-69
2022/12/09 03:54:14;;;;;;;2.10;1.97;;;;;;;;;;5077541;28;20457;-69
2022/12/09 03:56:44;;;;;;;2.83;2.40;;;;;;;;;;5080287;28;20442;-69
2022/12/09 03:59:12;;;;;;;3.20;2.10;;;;;;;;;;5072871;28;20532;-69
2022/12/09 04:01:40;;;;;;;11.53;4.03;;;;;;;;;;5082943;28;20953;-69
2022/12/09 04:04:08;;;;;;;6.30;1.97;;;;;;;;;;5073406;28;20465;-69
2022/12/09 04:06:35;;;;;;;2.40;2.00;;;;;;;;;;5091266;28;20446;-69
2022/12/09 04:09:04;;;;;;;2.43;1.60;;;;;;;;;;5077799;28;20483;-69
2022/12/09 04:11:32;;;;;;;2.53;1.73;;;;;;;;;;5086587;28;20483;-68
2022/12/09 04:13:59;;;;;;;3.63;2.77;;;;;;;;;;5091095;28;20448;-69
2022/12/09 04:16:26;;;;;;;4.20;2.57;;;;;;;;;;5092788;28;20791;-69
2022/12/09 04:18:53;;;;;;;4.03;2.40;;;;;;;;;;5090227;28;20799;-70
2022/12/09 04:21:20;;;;;;;3.33;3.10;;;;;;;;;;5092622;28;20449;-69
2022/12/09 04:23:48;;;;;;;4.47;2.63;;;;;;;;;;5080727;28;20455;-69
2022/12/09 04:26:17;;;;;;;2.80;2.57;;;;;;;;;;5092397;28;20449;-69
2022/12/09 04:28:45;;;;;;;3.13;2.20;;;;;;;;;;5091671;28;20453;-69
2022/12/09 04:31:12;;;;;;;1.77;1.50;;;;;;;;;;5086119;28;20480;-69
2022/12/09 04:33:39;;;;;;;1.60;1.50;;;;;;;;;;5084893;28;20450;-70
2022/12/09 04:36:07;;;;;;;2.43;2.13;;;;;;;;;;5077511;28;20446;-70
2022/12/09 04:38:34;;;;;;;2.87;1.77;;;;;;;;;;5088758;28;20990;-70
2022/12/09 04:41:01;;;;;;;3.07;2.37;;;;;;;;;;5089328;28;20453;-69
2022/12/09 04:43:30;;;;;;;4.27;2.50;;;;;;;;;;5088612;28;20791;-71
2022/12/09 04:46:00;;;;;;;5.20;2.53;;;;;;;;;;5084731;28;20809;-69
2022/12/09 04:48:28;;;;;;;2.63;1.80;;;;;;;;;;5081145;28;20572;-69
2022/12/09 04:50:55;;;;;;;2.80;2.60;;;;;;;;;;5079777;28;20553;-72
2022/12/09 04:53:22;;;;;;;7.80;4.77;;;;;;;;;;5075177;28;20956;-69
2022/12/09 04:55:49;;;;;;;6.10;4.67;;;;;;;;;;5071361;28;20451;-67
2022/12/09 04:58:16;;;;;;;3.67;2.20;;;;;;;;;;5077147;28;20453;-68
2022/12/09 05:00:45;;;;;;;2.13;1.93;;;;;;;;;;5079262;28;20937;-69
2022/12/09 05:03:12;;;;;;;2.50;2.20;;;;;;;;;;5089738;28;20446;-69
2022/12/09 05:05:40;;;;;;;3.07;2.53;;;;;;;;;;5089959;28;20793;-69
2022/12/09 05:08:07;;;;;;;4.40;3.47;;;;;;;;;;5083344;28;20647;-70
2022/12/09 05:10:34;;;;;;;7.63;3.80;;;;;;;;;;5083794;28;20542;-69
2022/12/09 05:13:01;;;;;;;2.40;1.87;;;;;;;;;;5071990;28;20798;-69
2022/12/09 05:15:28;;;;;;;2.20;2.00;;;;;;;;;;5081273;28;20450;-69
2022/12/09 05:17:58;;;;;;;3.13;2.67;;;;;;;;;;5076975;28;20454;-69
2022/12/09 05:20:28;;;;;;;13.80;1.70;;;;;;;;;;5074354;28;20454;-69
2022/12/09 05:22:55;;;;;;;1.97;1.87;;;;;;;;;;5089347;28;20456;-68
2022/12/09 05:25:22;;;;;;;2.37;2.17;;;;;;;;;;5084083;28;20445;-69
2022/12/09 05:27:49;;;;;;;3.10;2.70;;;;;;;;;;5079282;28;20441;-68
2022/12/09 05:30:16;;;;;;;3.37;2.43;;;;;;;;;;5089580;28;20481;-68
2022/12/09 05:32:43;;;;;;;2.07;1.90;;;;;;;;;;5082899;28;20547;-69
2022/12/09 05:35:12;;;;;;;3.00;2.23;;;;;;;;;;5083483;28;20457;-69
2022/12/09 05:37:39;;;;;;;3.73;1.70;;;;;;;;;;5079292;28;20448;-68
2022/12/09 05:40:07;;;;;;;5.33;1.70;;;;;;;;;;5089615;28;20469;-68
2022/12/09 05:42:34;;;;;;;2.50;2.00;;;;;;;;;;5090032;28;20463;-68
2022/12/09 05:45:01;;;;;;;3.83;2.73;;;;;;;;;;5089434;28;20953;-68
2022/12/09 05:47:29;;;;;;;4.20;2.30;;;;;;;;;;5088084;28;20461;-68
2022/12/09 05:49:56;;;;;;;5.80;3.20;;;;;;;;;;5087469;28;20464;-69
2022/12/09 05:52:25;;;;;;;2.40;1.70;;;;;;;;;;5082041;28;20481;-69
2022/12/09 05:54:52;;;;;;;3.73;2.87;;;;;;;;;;5074009;28;20446;-70
2022/12/09 05:57:19;;;;;;;12.33;3.50;;;;;;;;;;5077722;28;20473;-69
2022/12/09 05:59:46;;;;;;;5.67;2.23;;;;;;;;;;5075087;28;20869;-67
2022/12/09 06:02:13;;;;;;;2.13;1.90;;;;;;;;;;5089768;28;20460;-69
2022/12/09 06:04:40;;;;;;;2.90;1.63;;;;;;;;;;5076608;28;20437;-69
2022/12/09 06:07:07;;;;;;;2.63;2.00;;;;;;;;;;5077803;28;20460;-68
2022/12/09 06:09:36;;;;;;;3.90;2.40;;;;;;;;;;5077996;28;20462;-70
2022/12/09 06:12:03;;;;;;;3.80;3.30;;;;;;;;;;5076398;28;20989;-69
2022/12/09 06:14:31;;;;;;;3.27;1.90;;;;;;;;;;5082284;28;20442;-74
2022/12/09 06:16:58;;;;;;;3.10;2.17;;;;;;;;;;5082286;28;20462;-72
2022/12/09 06:19:25;;;;;;;4.37;2.00;;;;;;;;;;5083830;28;20797;-72
2022/12/09 06:21:52;;;;;;;6.47;3.13;;;;;;;;;;5086783;28;20453;-72
2022/12/09 06:24:19;;;;;;;1.87;1.60;;;;;;;;;;5074789;28;20456;-70
2022/12/09 06:26:48;;;;;;;3.57;2.80;;;;;;;;;;5087493;28;20441;-68
2022/12/09 06:29:15;;;;;;;1.87;1.77;;;;;;;;;;5075809;28;20450;-71
2022/12/09 06:31:42;;;;;;;3.10;2.80;;;;;;;;;;5083741;28;20472;-71
2022/12/09 06:34:09;;;;;;;2.90;1.57;;;;;;;;;;5072744;28;20933;-72
2022/12/09 06:36:36;;;;;;;4.87;4.40;;;;;;;;;;5078272;28;20445;-70
2022/12/09 06:39:05;;;;;;;2.80;1.80;;;;;;;;;;5083132;28;20447;-72
2022/12/09 06:41:32;;;;;;;5.43;4.60;;;;;;;;;;5081875;28;20949;-72
2022/12/09 06:44:00;;;;;;;3.93;2.90;;;;;;;;;;5083099;28;20439;-72
2022/12/09 06:46:28;;;;;;;2.20;2.00;;;;;;;;;;5081468;28;20951;-71
2022/12/09 06:48:56;;;;;;;2.63;1.90;;;;;;;;;;5075787;28;20493;-71
2022/12/09 06:51:24;;;;;;;2.63;2.43;;;;;;;;;;5089892;28;21011;-71
2022/12/09 06:53:51;;;;;;;7.67;2.03;;;;;;;;;;5081156;28;20452;-71
2022/12/09 06:56:18;;;;;;;6.43;4.03;;;;;;;;;;5081087;28;20810;-72
2022/12/09 06:58:46;;;;;;;5.37;3.27;;;;;;;;;;5082477;28;20445;-69
2022/12/09 07:01:16;;;;;;;2.40;2.20;;;;;;;;;;5083837;28;20985;-72
2022/12/09 07:03:44;;;;;;;6.90;2.87;;;;;;;;;;5085939;28;20448;-73
2022/12/09 07:06:17;;;;;;;2.13;1.40;;;;;;;;;;5084887;28;20441;-73
2022/12/09 07:08:44;;;;;;;3.50;2.13;;;;;;;;;;5086954;28;20967;-72
2022/12/09 07:11:11;;;;;;;9.10;2.87;;;;;;;;;;5090017;28;20488;-72
2022/12/09 07:13:38;;;;;;;4.50;4.07;;;;;;;;;;5080103;28;20928;-73
2022/12/09 07:16:05;;;;;;;3.00;2.33;;;;;;;;;;5081778;28;20456;-72
2022/12/09 07:18:34;;;;;;;2.87;2.60;;;;;;;;;;5087752;28;20540;-72
2022/12/09 07:21:06;;;;;;;3.70;1.83;;;;;;;;;;5076113;28;20938;-72
2022/12/09 07:23:33;;;;;;;3.13;2.70;;;;;;;;;;5089975;28;20452;-72
2022/12/09 07:26:01;;;;;;;3.30;2.07;;;;;;;;;;5081557;28;20844;-73
2022/12/09 07:28:29;;;;;;;4.40;2.87;;;;;;;;;;5091532;28;20504;-73
2022/12/09 07:30:56;;;;;;;5.10;2.63;;;;;;;;;;5092308;28;20477;-73
2022/12/09 07:33:23;;;;;;;4.97;2.50;;;;;;;;;;5092529;28;20459;-72
2022/12/09 07:35:54;;;;;;;4.87;3.23;;;;;;;;;;5091878;28;20454;-69
2022/12/09 07:38:22;;;;;;;3.17;2.70;;;;;;;;;;5086436;28;20450;-72
2022/12/09 07:40:49;;;;;;;8.00;3.30;;;;;;;;;;5092425;28;20787;-69
2022/12/09 07:43:16;;;;;;;3.50;2.30;;;;;;;;;;5092015;28;20460;-71
2022/12/09 07:45:44;;;;;;;5.10;3.60;;;;;;;;;;5091932;28;20807;-73
2022/12/09 07:48:11;;;;;;;4.07;3.17;;;;;;;;;;5091472;28;20467;-72
2022/12/09 07:50:38;;;;;;;4.63;2.87;;;;;;;;;;5092099;28;20544;-72
2022/12/09 07:53:07;;;;;;;3.33;2.80;;;;;;;;;;5082723;28;20455;-73
2022/12/09 07:55:34;;;;;;;4.00;3.10;;;;;;;;;;5086412;28;20462;-74
2022/12/09 07:58:01;;;;;;;4.03;2.70;;;-1.90;99.90;;;;;;5089127;28;20812;-73
2022/12/09 08:00:28;;;;;;;2.17;1.97;;;0.80;99.90;;;;;;5091907;28;20455;-73
2022/12/09 08:02:55;;;;;;;3.53;2.80;;;0.30;1.00;;;;;;5091229;28;20895;-74
2022/12/09 08:05:22;;;;;;;7.73;2.90;;;0.50;1.00;;;;;;5083949;28;20444;-72
2022/12/09 08:07:48;;;;;;;3.93;2.80;;;0.60;1.00;;;;;;5087431;28;20452;-69
2022/12/09 08:10:17;;;;;;;3.50;2.43;;;0.60;28.20;;;;;;5090462;28;20463;-72
2022/12/09 08:12:45;;;;;;;11.97;3.37;;;0.70;99.90;;;;;;5088229;28;20771;-73
2022/12/09 08:15:11;;;;;;;6.87;3.90;;;0.80;1.00;;;;;;5084766;28;20448;-71
2022/12/09 08:17:38;;;;;;;3.03;2.70;;;0.90;99.90;;;;;;5078243;28;20912;-73
2022/12/09 08:20:07;;;;;;;3.60;2.20;;;0.90;99.90;;;;;;5088058;28;20974;-68
2022/12/09 08:22:34;;;;;;;3.77;3.40;;;1.00;99.90;;;;;;5088340;28;20460;-70
2022/12/09 08:25:01;;;;;;;5.13;4.63;;;1.10;1.00;;;;;;5086797;28;20475;-70
2022/12/09 08:27:29;;;;;;;8.40;4.17;;;1.30;1.00;;;;;;5090512;28;20444;-70
2022/12/09 08:29:56;;;;;;;2.80;2.50;;;1.40;1.00;;;;;;5084729;28;20451;-70
2022/12/09 08:32:23;;;;;;;5.20;3.13;;;1.40;99.90;;;;;;5074450;28;20827;-71
2022/12/09 08:34:50;;;;;;;5.10;3.03;;;1.50;99.90;;;;;;5090280;28;20445;-69
2022/12/09 08:37:17;;;;;;;13.80;4.40;;;1.50;99.90;;;;;;5088537;28;20443;-69
2022/12/09 08:39:43;;;;;;;3.10;2.83;;;1.40;1.00;;;;;;5083539;28;20548;-69
2022/12/09 08:42:10;;;;;;;4.37;3.40;;;1.50;1.00;;;;;;5090214;28;20453;-70
2022/12/09 08:44:39;;;;;;;6.67;3.30;;;1.70;99.90;;;;;;5087574;28;20452;-71
2022/12/09 08:47:06;;;;;;;3.33;3.03;;;1.90;99.90;;;;;;5089704;28;20689;-71
2022/12/09 08:49:33;;;;;;;5.63;4.13;;;2.00;1.00;;;;;;5085680;28;20834;-72
2022/12/09 08:52:00;;;;;;;10.30;3.97;;;2.00;1.00;;;;;;5086566;28;21013;-71
2022/12/09 08:54:27;;;;;;;3.10;2.67;;;2.10;99.90;;;;;;5090864;28;20521;-71
2022/12/09 08:56:55;;;;;;;6.87;3.93;;;2.10;99.90;;;;;;5089809;28;20951;-70
2022/12/09 08:59:23;;;;;;;7.57;5.17;;;2.10;99.90;;;;;;5083615;28;21050;-71
2022/12/09 09:01:51;;;;;;;4.97;4.40;;;2.20;99.90;;;;;;5090217;28;20982;-68
2022/12/09 09:04:19;;;;;;;6.93;4.17;;;2.20;99.90;;;;;;5087197;28;20471;-71
2022/12/09 09:06:48;;;;;;;5.83;5.10;;;2.10;99.90;;;;;;5082213;28;21019;-70
2022/12/09 09:09:15;;;;;;;8.50;3.70;;;;;;;;;;5083857;28;20804;-70
2022/12/09 09:11:43;;;;;;;9.97;4.50;;;;;;;;;;5088278;28;20501;-69
2022/12/09 09:14:11;;;;;;;7.07;4.40;;;;;;;;;;5090141;28;20454;-70
2022/12/09 09:16:39;;;;;;;7.60;4.00;;;;;;;;;;5089406;28;20443;-71
2022/12/09 09:19:07;;;;;;;6.43;5.73;;;;;;;;;;5090410;28;20927;-71
2022/12/09 09:21:34;;;;;;;4.90;3.67;;;;;;;;;;5090410;28;20457;-71
2022/12/09 09:24:02;;;;;;;10.50;4.47;;;;;;;;;;5089655;28;20453;-71
2022/12/09 09:26:29;;;;;;;7.50;4.40;;;;;;;;;;5091342;28;20456;-71
2022/12/09 09:28:57;;;;;;;6.00;4.43;;;;;;;;;;5075510;28;20451;-70
2022/12/09 09:31:25;;;;;;;8.70;5.40;;;;;;;;;;5087422;28;20451;-70
2022/12/09 09:33:52;;;;;;;6.77;4.57;;;;;;;;;;5089513;28;20456;-70
2022/12/09 09:36:22;;;;;;;10.67;6.13;;;;;;;;;;5086393;28;20820;-70
2022/12/09 09:38:50;;;;;;;8.00;4.20;;;;;;;;;;5083415;28;20801;-67
2022/12/09 09:41:20;;;;;;;7.37;4.40;;;;;;;;;;5089865;28;20507;-71
2022/12/09 09:43:47;;;;;;;7.40;4.30;;;;;;;;;;5086228;28;20442;-70
2022/12/09 09:46:18;;;;;;;8.60;5.27;;;;;;;;;;5086720;28;20456;-71
2022/12/09 09:48:46;;;;;;;13.63;4.97;;;;;;;;;;5074868;28;20481;-72
2022/12/09 09:51:15;;;;;;;6.90;4.77;;;;;;;;;;5081070;28;20973;-71
2022/12/09 09:53:45;;;;;;;5.03;3.70;;;;;;;;;;5086636;28;20954;-70
2022/12/09 09:56:18;;;;;;;5.50;3.60;;;;;;;;;;5082308;28;20449;-70
2022/12/09 09:58:49;;;;;;;5.93;3.80;;;;;;;;;;5078163;28;20426;-70
2022/12/09 10:01:17;;;;;;;6.97;3.97;;;;;;;;;;5076123;28;20433;-69
2022/12/09 10:03:48;;;;;;;6.47;5.13;;;;;;;;;;5072480;28;20456;-70
2022/12/09 10:06:23;;;;;;;6.10;4.10;;;;;;;;;;5090208;28;20876;-69
2022/12/09 10:08:55;;;;;;;5.30;4.43;;;;;;;;;;5088782;28;20460;-71
2022/12/09 10:11:25;;;;;;;7.80;5.23;;;;;;;;;;5090863;28;20461;-70
2022/12/09 10:13:54;;;;;;;10.43;4.30;;;;;;;;;;5085843;28;20447;-70
2022/12/09 10:16:23;;;;;;;5.50;3.90;;;;;;;;;;5080546;28;20527;-70
2022/12/09 10:19:00;;;;;;;5.17;3.70;;;;;;;;;;5089961;28;20972;-70
2022/12/09 10:21:28;;;;;;;7.73;4.50;;;;;;;;;;5086812;28;20437;-70
2022/12/09 10:23:57;;;;;;;10.43;6.10;;;;;;;;;;5087962;28;20450;-70
2022/12/09 10:26:26;;;;;;;10.60;4.73;;;;;;;;;;5088387;28;20445;-71
2022/12/09 10:28:56;;;;;;;8.70;5.77;;;;;;;;;;5092371;28;20450;-70
2022/12/09 10:31:24;;;;;;;9.03;5.57;;;;;;;;;;5091065;28;20443;-70
2022/12/09 10:33:51;;;;;;;7.10;4.40;;;;;;;;;;5084612;28;20444;-70
2022/12/09 10:36:22;;;;;;;10.17;4.70;;;;;;;;;;5091621;28;20965;-72
2022/12/09 10:38:49;;;;;;;10.57;7.40;;;;;;;;;;5093037;28;20443;-68
2022/12/09 10:43:33;;;;;;;6.10;4.03;;;;;;;;;;5087897;28;20452;-69
2022/12/09 10:44:17;;;;;;;5.73;4.33;;;;;;;;;;5086748;28;20924;-71
2022/12/09 10:46:44;;;;;;;11.17;5.60;;;;;;;;;;5092101;28;20447;-68
2022/12/09 10:49:18;;;;;;;7.63;5.47;;;;;;;;;;5072925;28;20475;-71
2022/12/09 10:51:49;;;;;;;7.27;5.70;;;;;;;;;;5091486;28;20444;-69
2022/12/09 10:54:19;;;;;;;6.70;4.90;;;;;;;;;;5094121;28;20442;-70
2022/12/09 10:57:02;;;;;;;10.87;6.23;;;;;;;;;;5093604;28;20441;-67
2022/12/09 10:59:30;;;;;;;7.93;4.70;;;;;;;;;;5086860;28;20439;-70
2022/12/09 11:01:58;;;;;;;6.73;5.90;;;;;;;;;;5083812;28;20443;-71
2022/12/09 11:04:27;;;;;;;11.07;4.90;;;;;;;;;;5093480;28;20932;-70
2022/12/09 11:06:55;;;;;;;4.80;3.90;;;;;;;;;;5093063;28;20448;-72
2022/12/09 11:09:28;;;;;;;27.43;6.57;;;;;;;;;;5081685;28;20466;-70
2022/12/09 11:11:55;;;;;;;10.77;6.27;;;;;;;;;;5092467;28;20473;-72
2022/12/09 11:14:25;;;;;;;10.00;6.07;;;;;;;;;;5093026;28;20448;-70
2022/12/09 11:16:53;;;;;;;11.97;8.47;;;;;;;;;;5092333;28;20436;-71
2022/12/09 11:19:28;;;;;;;13.20;5.17;;;;;;;;;;5093238;28;20441;-71
2022/12/09 11:22:13;;;;;;;8.17;7.23;;;;;;;;;;5093130;28;20538;-70
2022/12/09 11:24:40;;;;;;;8.07;5.83;;;;;;;;;;5088013;28;20445;-69
2022/12/09 11:27:23;;;;;;;10.17;6.30;;;;;;;;;;5089912;28;20458;-73
2022/12/09 11:30:05;;;;;;;8.03;5.17;;;;;;;;;;5091474;28;20442;-75
2022/12/09 11:32:32;;;;;;;13.10;6.20;;;;;;;;;;5089256;28;20824;-75
2022/12/09 11:34:59;;;;;;;9.23;5.93;;;;;;;;;;5090231;28;20448;-75
2022/12/09 11:37:26;;;;;;;9.07;5.03;;;;;;;;;;5086865;28;20451;-76
2022/12/09 11:39:54;;;;;;;6.30;5.03;;;;;;;;;;5090309;28;20471;-73
2022/12/09 11:42:23;;;;;;;7.90;5.80;;;;;;;;;;5084049;28;21047;-73
2022/12/09 11:44:56;;;;;;;7.27;5.63;;;;;;;;;;5086573;28;20955;-75
2022/12/09 11:47:28;;;;;;;10.73;6.00;;;;;;;;;;5091986;28;20483;-76
2022/12/09 11:49:57;;;;;;;9.70;5.63;;;;;;;;;;5090868;28;20566;-75
2022/12/09 11:52:28;;;;;;;15.43;5.67;;;;;;;;;;5091746;28;20487;-75
2022/12/09 11:55:02;;;;;;;9.90;8.50;;;;;;;;;;5086745;28;20452;-76
2022/12/09 11:57:33;;;;;;;13.43;6.03;;;;;;;;;;5086720;28;20460;-75
2022/12/09 12:00:03;;;;;;;13.00;5.40;;;;;;;;;;5079837;28;20462;-71
2022/12/09 12:02:34;;;;;;;9.93;4.10;;;;;;;;;;5089562;28;20834;-71
2022/12/09 12:05:03;;;;;;;9.53;5.47;;;;;;;;;;5089975;28;20450;-71
2022/12/09 12:07:33;;;;;;;8.47;5.17;;;;;;;;;;5085297;28;20452;-69
2022/12/09 12:10:01;;;;;;;11.90;5.77;;;;;;;;;;5087612;28;20460;-71
2022/12/09 12:12:33;;;;;;;10.00;5.97;;;;;;;;;;5089116;28;20484;-70
2022/12/09 12:15:03;;;;;;;7.00;4.50;;;;;;;;;;5080979;28;20986;-70
2022/12/09 12:17:34;;;;;;;9.23;5.53;;;;;;;;;;5087549;28;20457;-70
2022/12/09 12:20:03;;;;;;;10.37;5.30;;;;;;;;;;5089490;28;20446;-70
2022/12/09 12:22:38;;;;;;;13.03;6.40;;;;;;;;;;5082675;28;20455;-70
2022/12/09 12:25:15;;;;;;;10.77;5.43;;;;;;;;;;5089093;28;21153;-70
2022/12/09 12:27:51;;;;;;;10.43;5.73;;;;;;;;;;5080094;28;21065;-70
2022/12/09 12:30:20;;;;;;;9.50;6.60;;;;;;;;;;5083367;28;20816;-70
2022/12/09 12:32:57;;;;;;;13.90;6.87;;;;;;;;;;5088713;28;20487;-68
2022/12/09 12:35:38;;;;;;;7.17;5.37;;;;;;;;;;5079114;28;20457;-71
2022/12/09 12:38:10;;;;;;;7.23;6.27;;;;;;;;;;5073661;28;20456;-70
2022/12/09 12:40:40;;;;;;;7.17;5.33;;;;;;;;;;5087902;28;20452;-70
2022/12/09 12:46:17;;;;;;;9.90;5.67;;;;;;;;;;5074998;28;20434;-70
2022/12/09 12:48:48;;;;;;;8.43;5.20;;;;;;;;;;5087052;28;20492;-70
2022/12/09 12:51:21;;;;;;;6.50;4.90;;;;;;;;;;5075257;28;20453;-71
2022/12/09 12:53:51;;;;;;;10.90;7.07;;;;;;;;;;5088435;28;20471;-68
2022/12/09 12:56:23;;;;;;;11.57;5.63;;;;;;;;;;5089743;28;20454;-71
2022/12/09 12:58:56;;;;;;;6.60;4.93;;;;;;;;;;5087372;28;20456;-70
2022/12/09 13:01:28;;;;;;;8.33;5.33;;;;;;;;;;5088947;28;20453;-70
2022/12/09 13:03:58;;;;;;;10.37;6.27;;;;;;;;;;5074144;28;20885;-71
2022/12/09 13:06:31;;;;;;;7.67;5.40;;;;;;;;;;5088285;28;20464;-71
2022/12/09 13:09:00;;;;;;;9.00;5.77;;;;;;;;;;5073397;28;20838;-70
2022/12/09 13:11:30;;;;;;;16.83;7.60;;;;;;;;;;5084106;28;21205;-70
2022/12/09 13:13:59;;;;;;;9.57;5.70;;;;;;;;;;5084380;28;21013;-70
2022/12/09 13:16:27;;;;;;;8.30;6.23;;;;;;;;;;5085737;28;20445;-71
2022/12/09 13:18:55;;;;;;;12.23;5.90;;;;;;;;;;5084409;28;20461;-71
2022/12/09 13:21:22;;;;;;;8.70;5.93;;;;;;;;;;5086842;28;20460;-70
2022/12/09 13:23:56;;;;;;;15.37;6.20;;;;;;;;;;5088295;28;20447;-70
2022/12/09 13:26:27;;;;;;;12.07;5.97;;;;;;;;;;5090066;28;20952;-71
2022/12/09 13:28:58;;;;;;;11.97;6.13;;;;;;;;;;5081203;28;20442;-71
2022/12/09 13:31:28;;;;;;;11.13;5.90;;;;;;;;;;5076382;28;20447;-71
2022/12/09 13:33:59;;;;;;;9.07;5.27;;;;;;;;;;5077320;28;20546;-72
2022/12/09 13:36:33;;;;;;;9.40;7.33;;;;;;;;;;5088975;28;20954;-71
2022/12/09 13:39:02;;;;;;;10.80;6.23;;;;;;;;;;5088493;28;20440;-72
2022/12/09 13:44:26;;;;;;;12.07;5.63;;;;;;;;;;5089499;28;20416;-71
2022/12/09 13:46:53;;;;;;;10.00;5.50;;;;;;;;;;5075977;28;20455;-71
2022/12/09 13:49:21;;;;;;;14.23;7.77;;;;;;;;;;5083554;28;20476;-73
2022/12/09 13:51:50;;;;;;;10.80;5.60;;;;;;;;;;5073199;28;20457;-68
2022/12/09 13:54:19;;;;;;;12.57;6.57;;;;;;;;;;5080763;28;20485;-71
2022/12/09 13:57:01;;;;;;;8.47;5.20;;;;;;;;;;5077055;28;20448;-68
2022/12/09 13:59:38;;;;;;;9.77;5.37;;;;;;;;;;5090567;28;20439;-70
2022/12/09 14:02:12;;;;;;;11.77;5.37;;;;;;;;;;5083241;28;20455;-71
2022/12/09 14:04:45;;;;;;;10.00;6.30;;;;;;;;;;5084302;28;20936;-73
2022/12/09 14:07:19;;;;;;;21.90;7.93;;;;;;;;;;5072393;28;20459;-71
2022/12/09 14:09:49;;;;;;;7.20;5.30;;;;;;;;;;5075755;28;20449;-67
2022/12/09 14:12:41;;;;;;;10.87;5.70;;;;;;;;;;5088283;28;20518;-72
2022/12/09 14:15:34;;;;;;;6.10;5.40;;;;;;;;;;5081451;28;20448;-69
2022/12/09 14:18:03;;;;;;;12.37;7.47;;;;;;;;;;5080023;28;20453;-74
2022/12/09 14:20:31;;;;;;;12.80;6.73;;;;;;;;;;5084202;28;20472;-74
2022/12/09 14:23:13;;;;;;;12.27;6.60;;;;;;;;;;5080609;28;20457;-76
2022/12/09 14:25:58;;;;;;;12.40;6.80;;;;;;;;;;5076997;28;20480;-73
2022/12/09 14:28:36;;;;;;;10.70;6.97;;;;;;;;;;5090210;28;20456;-74
2022/12/09 14:31:03;;;;;;;13.70;5.80;;;;;;;;;;5089924;28;20838;-72
2022/12/09 14:33:31;;;;;;;12.53;6.97;;;;;;;;;;5090466;28;20488;-74
2022/12/09 14:36:01;;;;;;;11.77;6.17;;;;;;;;;;5090163;28;20451;-74